Aviation Services » Terminal Aerodrome Forecasts Tuesday, April 25, 2017
 Terminal Aerodrome Forecasts (TAF)

TAF NVSC 242220Z 2500/2524 12010KT 9999 SCT020 BKN040
PROB40 INTER 2500/2506 7000 -TSRA FEW014 BKN018 FEW022CB=

TAF NVSG 242220Z 2500/2524 12012KT 9999 SCT020
PROB40 INTER 2500/2506 8000 SHRA FEW014 BKN018=

TAF NVSS 242220Z 2500/2524 12012KT 9999 SCT020
PROB40 INTER 2500/2506 8000 SHRA FEW014 BKN018=

TAF NVSL 242220Z 2500/2524 11010KT 9999 SCT020=

TAF NVVV 242220Z 2500/2524 12010KT 9999 SCT020=

TAF NVVW 242220Z 2500/2524 13008KT 9999 SCT020
PROB30 INTER 2500/2506 9000 -SHRA BKN018=

TAF NVVA 242220Z 2500/2524 13008KT 9999 SCT020
PROB30 INTER 2500/2506 9000 -SHRA BKN018=